createdAt,value
2023-05-01T00:00:13.748Z,446.00
2023-05-01T00:01:13.805Z,448.00
2023-05-01T00:02:13.872Z,450.00
2023-05-01T00:03:14.051Z,450.00
2023-05-01T00:04:14.136Z,450.00
2023-05-01T00:05:14.077Z,451.00
2023-05-01T00:06:14.109Z,448.00
2023-05-01T00:07:14.146Z,448.00
2023-05-01T00:08:14.148Z,447.00
2023-05-01T00:09:14.152Z,447.00
2023-05-01T00:10:14.151Z,448.00
2023-05-01T00:11:14.155Z,451.00
2023-05-01T00:12:14.170Z,454.00
2023-05-01T00:13:14.162Z,455.00
2023-05-01T00:14:14.168Z,458.00
2023-05-01T00:15:14.182Z,459.00
2023-05-01T00:16:14.192Z,458.00
2023-05-01T00:17:14.140Z,457.00
2023-05-01T00:18:14.256Z,457.00
2023-05-01T00:19:14.512Z,457.00
2023-05-01T00:20:14.399Z,459.00
2023-05-01T00:21:14.378Z,458.00
2023-05-01T00:22:14.446Z,459.00
2023-05-01T00:23:14.522Z,457.00
2023-05-01T00:24:14.582Z,454.00
2023-05-01T00:25:14.630Z,451.00
2023-05-01T00:26:14.694Z,448.00
2023-05-01T00:27:14.771Z,448.00
2023-05-01T00:28:14.836Z,448.00
2023-05-01T00:29:14.905Z,448.00
2023-05-01T00:30:14.976Z,446.00
2023-05-01T00:31:15.039Z,445.00
2023-05-01T00:32:15.218Z,447.00
2023-05-01T00:33:15.148Z,449.00
2023-05-01T00:34:15.219Z,449.00
2023-05-01T00:35:15.285Z,449.00
2023-05-01T00:36:15.331Z,447.00
2023-05-01T00:37:15.413Z,446.00
2023-05-01T00:38:15.454Z,446.00
2023-05-01T00:39:15.548Z,449.00
2023-05-01T00:40:15.608Z,448.00
2023-05-01T00:41:15.701Z,449.00
2023-05-01T00:42:15.727Z,451.00
2023-05-01T00:43:15.777Z,451.00
2023-05-01T00:44:15.824Z,451.00
2023-05-01T00:45:15.893Z,454.00
2023-05-01T00:46:15.974Z,452.00
2023-05-01T00:47:16.024Z,451.00
2023-05-01T00:48:16.066Z,450.00
2023-05-01T00:49:16.031Z,448.00
2023-05-01T00:50:16.039Z,448.00
2023-05-01T00:51:16.044Z,449.00
2023-05-01T00:52:16.008Z,449.00
2023-05-01T00:53:16.035Z,450.00
2023-05-01T00:54:16.014Z,450.00
2023-05-01T00:55:16.013Z,449.00
2023-05-01T00:56:15.998Z,450.00
2023-05-01T00:57:15.995Z,450.00
2023-05-01T00:58:15.981Z,449.00
2023-05-01T00:59:16.007Z,451.00
2023-05-01T01:00:16.053Z,450.00
2023-05-01T01:01:16.175Z,452.00
2023-05-01T01:02:16.173Z,453.00
2023-05-01T01:03:16.227Z,454.00
2023-05-01T01:04:16.301Z,454.00
2023-05-01T01:05:16.360Z,451.00
2023-05-01T01:06:16.529Z,450.00
2023-05-01T01:07:16.470Z,451.00
2023-05-01T01:08:16.529Z,452.00
2023-05-01T01:09:16.578Z,452.00
2023-05-01T01:10:16.668Z,451.00
2023-05-01T01:11:16.714Z,452.00
2023-05-01T01:12:16.770Z,455.00
2023-05-01T01:13:16.818Z,457.00
2023-05-01T01:14:16.875Z,459.00
2023-05-01T01:15:16.963Z,460.00
2023-05-01T01:16:17.018Z,461.00
2023-05-01T01:17:17.094Z,464.00
2023-05-01T01:18:17.153Z,464.00
2023-05-01T01:19:17.223Z,462.00
2023-05-01T01:20:17.289Z,461.00
2023-05-01T01:21:17.329Z,460.00
2023-05-01T01:22:17.385Z,458.00
2023-05-01T01:23:17.379Z,457.00
2023-05-01T01:24:17.380Z,458.00
2023-05-01T01:25:17.387Z,459.00
2023-05-01T01:26:17.382Z,461.00
2023-05-01T01:27:17.384Z,462.00
2023-05-01T01:28:17.394Z,462.00
2023-05-01T01:29:17.387Z,462.00
2023-05-01T01:30:17.418Z,460.00
2023-05-01T01:31:17.434Z,459.00
2023-05-01T01:32:17.379Z,459.00
2023-05-01T01:33:17.420Z,459.00
2023-05-01T01:34:17.398Z,457.00
2023-05-01T01:35:17.404Z,458.00
2023-05-01T01:36:17.401Z,458.00
2023-05-01T01:37:17.415Z,458.00
2023-05-01T01:38:17.370Z,457.00
2023-05-01T01:39:17.370Z,461.00
2023-05-01T01:40:17.378Z,463.00
2023-05-01T01:41:17.375Z,465.00
2023-05-01T01:42:17.383Z,467.00
2023-05-01T01:43:17.479Z,466.00
2023-05-01T01:44:17.375Z,467.00
2023-05-01T01:45:17.389Z,466.00
2023-05-01T01:46:17.453Z,466.00
2023-05-01T01:47:17.355Z,466.00
2023-05-01T01:48:17.366Z,467.00
2023-05-01T01:50:17.500Z,468.00
2023-05-01T01:51:17.568Z,468.00
2023-05-01T01:52:17.643Z,468.00
2023-05-01T01:53:17.674Z,470.00
2023-05-01T01:54:17.766Z,468.00
2023-05-01T01:55:17.796Z,466.00
2023-05-01T01:56:17.836Z,463.00
2023-05-01T01:57:17.883Z,461.00
2023-05-01T01:58:17.944Z,461.00
2023-05-01T01:59:18.025Z,464.00
2023-05-01T02:00:18.055Z,462.00
2023-05-01T02:01:18.157Z,461.00
2023-05-01T02:02:18.164Z,458.00
2023-05-01T02:03:18.318Z,459.00
2023-05-01T02:04:18.347Z,458.00
2023-05-01T02:05:18.367Z,457.00
2023-05-01T02:06:18.485Z,457.00
2023-05-01T02:07:18.485Z,455.00
2023-05-01T02:08:18.549Z,456.00
2023-05-01T02:09:18.613Z,454.00
2023-05-01T02:10:18.697Z,455.00
2023-05-01T02:11:18.753Z,457.00
2023-05-01T02:12:18.820Z,456.00
2023-05-01T02:13:18.901Z,457.00
2023-05-01T02:14:18.940Z,456.00
2023-05-01T02:15:19.013Z,458.00
2023-05-01T02:16:19.063Z,459.00
2023-05-01T02:17:19.085Z,458.00
2023-05-01T02:18:19.016Z,457.00
2023-05-01T02:19:19.012Z,457.00
2023-05-01T02:20:19.006Z,458.00
2023-05-01T02:21:19.023Z,456.00
2023-05-01T02:22:18.986Z,454.00
2023-05-01T02:23:18.977Z,455.00
2023-05-01T02:24:18.976Z,456.00
2023-05-01T02:25:18.975Z,457.00
2023-05-01T02:26:19.028Z,457.00
2023-05-01T02:27:19.037Z,456.00
2023-05-01T02:28:19.112Z,455.00
2023-05-01T02:29:19.166Z,459.00
2023-05-01T02:30:19.190Z,462.00
2023-05-01T02:31:19.277Z,464.00
2023-05-01T02:32:19.330Z,463.00
2023-05-01T02:33:19.336Z,463.00
2023-05-01T02:34:19.361Z,463.00
2023-05-01T02:35:19.340Z,462.00
2023-05-01T02:36:19.342Z,461.00
2023-05-01T02:37:19.339Z,460.00
2023-05-01T02:38:19.368Z,460.00
2023-05-01T02:39:19.333Z,462.00
2023-05-01T02:40:19.319Z,463.00
2023-05-01T02:41:19.317Z,462.00
2023-05-01T02:42:19.313Z,462.00
2023-05-01T02:43:19.312Z,463.00
2023-05-01T02:44:19.284Z,463.00
2023-05-01T02:45:19.312Z,463.00
2023-05-01T02:46:19.387Z,460.00
2023-05-01T02:47:19.392Z,459.00
2023-05-01T02:48:19.397Z,458.00
2023-05-01T02:49:19.452Z,459.00
2023-05-01T02:50:19.466Z,458.00
2023-05-01T02:51:19.518Z,455.00
2023-05-01T02:52:19.557Z,451.00
2023-05-01T02:53:19.589Z,450.00
2023-05-01T02:54:19.627Z,448.00
2023-05-01T02:55:19.670Z,450.00
2023-05-01T02:56:19.651Z,449.00
2023-05-01T02:57:19.677Z,449.00
2023-05-01T02:58:19.715Z,450.00
2023-05-01T02:59:19.723Z,450.00
2023-05-01T03:00:19.795Z,450.00
2023-05-01T03:01:19.819Z,448.00
2023-05-01T03:02:19.791Z,447.00
2023-05-01T03:03:19.928Z,448.00
2023-05-01T03:04:19.859Z,444.00
2023-05-01T03:05:19.795Z,445.00
2023-05-01T03:06:19.817Z,441.00
2023-05-01T03:07:19.779Z,442.00
2023-05-01T03:08:19.754Z,442.00
2023-05-01T03:09:19.834Z,443.00
2023-05-01T03:10:19.776Z,443.00
2023-05-01T03:11:19.771Z,442.00
2023-05-01T03:12:19.747Z,441.00
2023-05-01T03:13:19.751Z,440.00
2023-05-01T03:14:19.741Z,439.00
2023-05-01T03:15:19.736Z,440.00
2023-05-01T03:16:19.752Z,439.00
2023-05-01T03:17:19.737Z,436.00
2023-05-01T03:18:19.719Z,435.00
2023-05-01T03:19:19.725Z,434.00
2023-05-01T03:20:19.724Z,432.00
2023-05-01T03:21:19.706Z,428.00
2023-05-01T03:22:19.693Z,429.00
2023-05-01T03:23:19.698Z,432.00
2023-05-01T03:24:19.684Z,433.00
2023-05-01T03:25:19.681Z,434.00
2023-05-01T03:26:19.705Z,432.00
2023-05-01T03:27:19.737Z,430.00
2023-05-01T03:28:19.735Z,429.00
2023-05-01T03:29:19.752Z,428.00
2023-05-01T03:30:19.758Z,427.00
2023-05-01T03:31:19.791Z,427.00
2023-05-01T03:32:19.828Z,427.00
2023-05-01T03:33:19.817Z,426.00
2023-05-01T03:34:19.831Z,426.00
2023-05-01T03:35:19.855Z,426.00
2023-05-01T03:36:19.865Z,424.00
2023-05-01T03:37:19.879Z,423.00
2023-05-01T03:38:19.906Z,423.00
2023-05-01T03:39:19.907Z,420.00
2023-05-01T03:40:19.929Z,420.00
2023-05-01T03:41:19.985Z,420.00
2023-05-01T03:42:19.968Z,420.00
2023-05-01T03:43:19.981Z,422.00
2023-05-01T03:44:20.039Z,420.00
2023-05-01T03:45:20.009Z,418.00
2023-05-01T03:46:20.155Z,418.00
2023-05-01T03:47:20.058Z,418.00
2023-05-01T03:48:20.098Z,420.00
2023-05-01T03:49:20.095Z,423.00
2023-05-01T03:50:20.090Z,423.00
2023-05-01T03:51:20.120Z,423.00
2023-05-01T03:52:20.100Z,420.00
2023-05-01T03:53:20.103Z,418.00
2023-05-01T03:54:20.104Z,418.00
2023-05-01T03:55:20.110Z,420.00
2023-05-01T03:56:20.089Z,421.00
2023-05-01T03:57:20.075Z,422.00
2023-05-01T03:58:20.076Z,422.00
2023-05-01T03:59:20.070Z,422.00
2023-05-01T04:00:20.062Z,423.00
2023-05-01T04:01:20.072Z,422.00
2023-05-01T04:02:20.195Z,421.00
2023-05-01T04:03:20.195Z,423.00
2023-05-01T04:04:20.081Z,426.00
2023-05-01T04:05:20.074Z,426.00
2023-05-01T04:06:20.095Z,425.00
2023-05-01T04:07:20.054Z,425.00
2023-05-01T04:08:20.086Z,427.00
2023-05-01T04:09:20.060Z,429.00
2023-05-01T04:10:20.047Z,431.00
2023-05-01T04:11:20.050Z,430.00
2023-05-01T04:12:20.029Z,429.00
2023-05-01T04:13:19.998Z,429.00
2023-05-01T04:14:20.000Z,430.00
2023-05-01T04:15:19.998Z,432.00
2023-05-01T04:16:20.088Z,428.00
2023-05-01T04:17:20.021Z,429.00
2023-05-01T04:18:20.033Z,430.00
2023-05-01T04:19:20.015Z,429.00
2023-05-01T04:20:20.012Z,430.00
2023-05-01T04:21:20.052Z,432.00
2023-05-01T04:22:20.008Z,432.00
2023-05-01T04:23:19.982Z,432.00
2023-05-01T04:24:20.004Z,431.00
2023-05-01T04:25:20.014Z,433.00
2023-05-01T04:26:20.037Z,433.00
2023-05-01T04:27:20.011Z,434.00
2023-05-01T04:28:20.012Z,434.00
2023-05-01T04:29:20.000Z,434.00
2023-05-01T04:30:19.998Z,432.00
2023-05-01T04:31:20.042Z,429.00
2023-05-01T04:32:20.050Z,430.00
2023-05-01T04:33:20.003Z,429.00
2023-05-01T04:34:20.002Z,430.00
2023-05-01T04:35:20.011Z,431.00
2023-05-01T04:36:20.008Z,431.00
2023-05-01T04:37:20.005Z,432.00
2023-05-01T04:38:20.004Z,431.00
2023-05-01T04:39:19.988Z,430.00
2023-05-01T04:40:20.067Z,431.00
2023-05-01T04:41:19.980Z,430.00
2023-05-01T04:42:20.002Z,428.00
2023-05-01T04:43:19.979Z,430.00
2023-05-01T04:44:19.978Z,430.00
2023-05-01T04:45:19.982Z,428.00
2023-05-01T04:46:19.997Z,431.00
2023-05-01T04:47:19.955Z,433.00
2023-05-01T04:48:20.020Z,433.00
2023-05-01T04:49:19.961Z,432.00
2023-05-01T04:50:19.946Z,433.00
2023-05-01T04:51:19.961Z,433.00
2023-05-01T04:52:19.957Z,432.00
2023-05-01T04:53:19.988Z,430.00
2023-05-01T04:54:19.946Z,429.00
2023-05-01T04:55:19.951Z,425.00
2023-05-01T04:56:20.137Z,423.00
2023-05-01T04:57:19.933Z,424.00
2023-05-01T04:58:19.906Z,424.00
2023-05-01T04:59:19.919Z,425.00
2023-05-01T05:00:19.961Z,425.00
2023-05-01T05:01:19.956Z,423.00
2023-05-01T05:02:20.109Z,422.00
2023-05-01T05:03:20.105Z,420.00
2023-05-01T05:04:20.030Z,422.00
2023-05-01T05:05:20.031Z,423.00
2023-05-01T05:06:20.057Z,420.00
2023-05-01T05:07:20.021Z,421.00
2023-05-01T05:08:20.022Z,422.00
2023-05-01T05:09:20.264Z,424.00
2023-05-01T05:10:20.025Z,423.00
2023-05-01T05:11:20.048Z,423.00
2023-05-01T05:12:20.040Z,424.00
2023-05-01T05:13:19.990Z,426.00
2023-05-01T05:14:20.007Z,426.00
2023-05-01T05:15:20.008Z,426.00
2023-05-01T05:16:20.084Z,425.00
2023-05-01T05:17:20.038Z,427.00
2023-05-01T05:18:20.171Z,428.00
2023-05-01T05:19:20.075Z,429.00
2023-05-01T05:20:20.157Z,426.00
2023-05-01T05:21:20.166Z,426.00
2023-05-01T05:22:20.182Z,425.00
2023-05-01T05:23:20.192Z,426.00
2023-05-01T05:24:20.179Z,427.00
2023-05-01T05:25:20.200Z,427.00
2023-05-01T05:26:20.192Z,427.00
2023-05-01T05:27:20.188Z,426.00
2023-05-01T05:28:20.193Z,427.00
2023-05-01T05:29:20.195Z,427.00
2023-05-01T05:30:20.196Z,427.00
2023-05-01T05:31:20.222Z,424.00
2023-05-01T05:32:20.335Z,422.00
2023-05-01T05:33:20.273Z,424.00
2023-05-01T05:34:20.237Z,425.00
2023-05-01T05:35:20.285Z,424.00
2023-05-01T05:36:20.271Z,425.00
2023-05-01T05:37:20.280Z,424.00
2023-05-01T05:38:20.292Z,421.00
2023-05-01T05:39:20.307Z,424.00
2023-05-01T05:40:20.314Z,423.00
2023-05-01T05:41:20.337Z,424.00
2023-05-01T05:42:20.369Z,421.00
2023-05-01T05:43:20.406Z,422.00
2023-05-01T05:44:20.385Z,420.00
2023-05-01T05:45:20.431Z,420.00
2023-05-01T05:46:20.490Z,419.00
2023-05-01T05:47:20.413Z,420.00
2023-05-01T05:48:20.440Z,421.00
2023-05-01T05:49:20.440Z,422.00
2023-05-01T05:50:20.401Z,422.00
2023-05-01T05:51:20.389Z,418.00
2023-05-01T05:52:20.405Z,418.00
2023-05-01T05:53:20.417Z,415.00
2023-05-01T05:54:21.158Z,417.00
2023-05-01T05:55:21.183Z,416.00
2023-05-01T05:56:20.624Z,417.00
2023-05-01T05:57:20.649Z,415.00
2023-05-01T05:58:20.642Z,414.00
2023-05-01T05:59:20.640Z,416.00
2023-05-01T06:00:20.658Z,419.00
2023-05-01T06:01:20.687Z,422.00
2023-05-01T06:02:20.768Z,422.00
2023-05-01T06:03:21.729Z,424.00
2023-05-01T06:04:20.785Z,423.00
2023-05-01T06:05:23.694Z,422.00
2023-05-01T06:06:20.801Z,420.00
2023-05-01T06:07:20.765Z,421.00
2023-05-01T06:08:20.802Z,422.00
2023-05-01T06:09:20.776Z,423.00
2023-05-01T06:10:20.767Z,421.00
2023-05-01T06:11:21.681Z,420.00
2023-05-01T06:12:20.786Z,421.00
2023-05-01T06:13:20.748Z,420.00
2023-05-01T06:14:20.768Z,418.00
2023-05-01T06:15:20.771Z,417.00
2023-05-01T06:16:20.807Z,418.00
2023-05-01T06:17:20.812Z,417.00
2023-05-01T06:18:20.769Z,418.00
2023-05-01T06:19:20.778Z,418.00
2023-05-01T06:20:20.780Z,418.00
2023-05-01T06:21:20.796Z,420.00
2023-05-01T06:22:20.765Z,420.00
2023-05-01T06:23:20.792Z,419.00
2023-05-01T06:24:20.801Z,419.00
2023-05-01T06:25:20.764Z,422.00
2023-05-01T06:26:20.786Z,422.00
2023-05-01T06:27:20.799Z,424.00
2023-05-01T06:28:20.767Z,424.00
2023-05-01T06:29:20.774Z,423.00
2023-05-01T06:30:20.770Z,423.00
2023-05-01T06:31:20.810Z,426.00
2023-05-01T06:32:20.847Z,425.00
2023-05-01T06:33:20.866Z,426.00
2023-05-01T06:34:20.790Z,424.00
2023-05-01T06:35:20.779Z,424.00
2023-05-01T06:36:20.816Z,425.00
2023-05-01T06:37:21.176Z,425.00
2023-05-01T06:38:21.667Z,427.00
2023-05-01T06:39:20.820Z,426.00
2023-05-01T06:40:20.840Z,427.00
2023-05-01T06:41:20.809Z,426.00
2023-05-01T06:42:21.673Z,425.00
2023-05-01T06:43:20.863Z,423.00
2023-05-01T06:44:20.858Z,422.00
2023-05-01T06:45:21.679Z,423.00
2023-05-01T06:46:20.938Z,422.00
2023-05-01T06:47:21.250Z,420.00
2023-05-01T06:48:21.002Z,420.00
2023-05-01T06:49:20.974Z,421.00
2023-05-01T06:50:21.003Z,422.00
2023-05-01T06:51:21.000Z,423.00
2023-05-01T06:52:21.050Z,425.00
2023-05-01T06:53:21.078Z,427.00
2023-05-01T06:54:21.088Z,428.00
2023-05-01T06:55:21.065Z,429.00
2023-05-01T06:56:21.073Z,427.00
2023-05-01T06:57:21.103Z,428.00
2023-05-01T06:58:24.072Z,429.00
2023-05-01T06:59:21.107Z,428.00
2023-05-01T07:00:21.145Z,427.00
2023-05-01T07:01:21.240Z,424.00
2023-05-01T07:02:21.329Z,422.00
2023-05-01T07:03:21.261Z,425.00
2023-05-01T07:04:21.126Z,424.00
2023-05-01T07:05:21.128Z,421.00
2023-05-01T07:06:21.202Z,422.00
2023-05-01T07:07:21.174Z,424.00
2023-05-01T07:08:21.723Z,424.00
2023-05-01T07:09:21.176Z,426.00
2023-05-01T07:10:21.189Z,425.00
2023-05-01T07:11:21.185Z,424.00
2023-05-01T07:12:21.176Z,424.00
2023-05-01T07:13:21.195Z,424.00
2023-05-01T07:14:21.225Z,423.00
2023-05-01T07:15:21.699Z,423.00
2023-05-01T07:16:21.257Z,422.00
2023-05-01T07:17:21.237Z,420.00
2023-05-01T07:18:21.203Z,421.00
2023-05-01T07:19:21.178Z,423.00
2023-05-01T07:20:21.204Z,426.00
2023-05-01T07:21:21.183Z,426.00
2023-05-01T07:22:21.218Z,426.00
2023-05-01T07:23:21.187Z,427.00
2023-05-01T07:24:21.188Z,425.00
2023-05-01T07:25:21.203Z,422.00
2023-05-01T07:26:21.191Z,423.00
2023-05-01T07:27:22.627Z,424.00
2023-05-01T07:28:21.319Z,424.00
2023-05-01T07:29:23.883Z,425.00
2023-05-01T07:30:21.544Z,424.00
2023-05-01T07:31:21.661Z,423.00
2023-05-01T07:32:21.590Z,423.00
2023-05-01T07:33:21.475Z,426.00
2023-05-01T07:34:21.507Z,428.00
2023-05-01T07:35:21.549Z,429.00
2023-05-01T07:36:21.642Z,429.00
2023-05-01T07:37:21.516Z,429.00
2023-05-01T07:38:21.499Z,431.00
2023-05-01T07:39:21.529Z,428.00
2023-05-01T07:40:21.564Z,429.00
2023-05-01T07:41:21.541Z,429.00
2023-05-01T07:42:21.590Z,430.00
2023-05-01T07:43:21.579Z,431.00
2023-05-01T07:44:21.621Z,430.00
2023-05-01T07:45:21.624Z,430.00
2023-05-01T07:46:21.674Z,431.00
2023-05-01T07:47:21.637Z,428.00
2023-05-01T07:48:21.664Z,427.00
2023-05-01T07:49:21.702Z,426.00
2023-05-01T07:50:21.732Z,426.00
2023-05-01T07:51:21.708Z,426.00
2023-05-01T07:52:21.812Z,426.00
2023-05-01T07:53:21.710Z,426.00
2023-05-01T07:54:21.734Z,427.00
2023-05-01T07:55:21.769Z,428.00
2023-05-01T07:56:21.774Z,430.00
2023-05-01T07:57:21.780Z,433.00
2023-05-01T07:58:21.850Z,433.00
2023-05-01T07:59:21.807Z,434.00
2023-05-01T08:00:21.804Z,433.00
2023-05-01T08:01:21.853Z,433.00
2023-05-01T08:02:21.926Z,433.00
2023-05-01T08:03:22.125Z,433.00
2023-05-01T08:04:22.797Z,432.00
2023-05-01T08:05:21.887Z,430.00
2023-05-01T08:06:21.897Z,430.00
2023-05-01T08:07:21.931Z,431.00
2023-05-01T08:08:21.921Z,430.00
2023-05-01T08:09:22.041Z,429.00
2023-05-01T08:10:21.964Z,429.00
2023-05-01T08:11:21.996Z,430.00
2023-05-01T08:12:21.999Z,432.00
2023-05-01T08:13:21.968Z,434.00
2023-05-01T08:14:22.758Z,434.00
2023-05-01T08:15:22.018Z,433.00
2023-05-01T08:16:22.792Z,431.00
2023-05-01T08:17:22.066Z,430.00
2023-05-01T08:18:22.011Z,429.00
2023-05-01T08:19:22.007Z,431.00
2023-05-01T08:20:22.034Z,430.00
2023-05-01T08:21:22.019Z,432.00
2023-05-01T08:22:22.051Z,430.00
2023-05-01T08:23:22.027Z,431.00
2023-05-01T08:24:22.018Z,432.00
2023-05-01T08:25:22.042Z,433.00
2023-05-01T08:26:24.721Z,433.00
2023-05-01T08:27:22.022Z,432.00
2023-05-01T08:28:22.036Z,432.00
2023-05-01T08:29:22.033Z,431.00
2023-05-01T08:30:22.040Z,430.00
2023-05-01T08:31:22.091Z,428.00
2023-05-01T08:32:22.328Z,429.00
2023-05-01T08:33:22.029Z,429.00
2023-05-01T08:34:22.721Z,430.00
2023-05-01T08:35:22.043Z,430.00
2023-05-01T08:36:22.036Z,430.00
2023-05-01T08:37:22.045Z,428.00
2023-05-01T08:38:22.012Z,429.00
2023-05-01T08:39:22.080Z,428.00
2023-05-01T08:40:22.770Z,429.00
2023-05-01T08:41:22.061Z,429.00
2023-05-01T08:42:22.046Z,430.00
2023-05-01T08:43:22.046Z,434.00
2023-05-01T08:44:22.042Z,437.00
2023-05-01T08:45:22.064Z,436.00
2023-05-01T08:46:22.058Z,434.00
2023-05-01T08:47:22.125Z,434.00
2023-05-01T08:48:22.039Z,430.00
2023-05-01T08:49:22.048Z,430.00
2023-05-01T08:50:22.058Z,429.00
2023-05-01T08:51:22.729Z,430.00
2023-05-01T08:52:22.032Z,429.00
2023-05-01T08:53:21.996Z,430.00
2023-05-01T08:54:22.099Z,430.00
2023-05-01T08:55:22.003Z,430.00
2023-05-01T08:56:22.037Z,430.00
2023-05-01T08:57:22.106Z,430.00
2023-05-01T08:58:22.172Z,432.00
2023-05-01T08:59:22.207Z,433.00
2023-05-01T09:00:22.350Z,431.00
2023-05-01T09:01:22.327Z,431.00
2023-05-01T09:02:22.310Z,430.00
2023-05-01T09:03:22.320Z,428.00
2023-05-01T09:04:22.854Z,427.00
2023-05-01T09:05:22.276Z,428.00
2023-05-01T09:06:22.180Z,429.00
2023-05-01T09:07:22.157Z,429.00
2023-05-01T09:08:22.270Z,432.00
2023-05-01T09:09:22.229Z,433.00
2023-05-01T09:10:22.275Z,432.00
2023-05-01T09:11:22.432Z,432.00
2023-05-01T09:12:22.404Z,429.00
2023-05-01T09:13:22.470Z,429.00
2023-05-01T09:14:22.505Z,429.00
2023-05-01T09:15:22.589Z,430.00
2023-05-01T09:16:22.665Z,428.00
2023-05-01T09:17:23.283Z,430.00
2023-05-01T09:18:22.744Z,430.00
2023-05-01T09:19:22.784Z,431.00
2023-05-01T09:20:22.855Z,430.00
2023-05-01T09:21:22.920Z,431.00
2023-05-01T09:22:22.983Z,432.00
2023-05-01T09:23:23.034Z,434.00
2023-05-01T09:24:23.068Z,434.00
2023-05-01T09:25:23.120Z,432.00
2023-05-01T09:26:23.240Z,431.00
2023-05-01T09:27:23.243Z,432.00
2023-05-01T09:28:23.315Z,432.00
2023-05-01T09:29:23.391Z,433.00
2023-05-01T09:30:23.485Z,433.00
2023-05-01T09:31:23.569Z,432.00
2023-05-01T09:32:23.555Z,434.00
2023-05-01T09:33:23.623Z,435.00
2023-05-01T09:34:23.626Z,435.00
2023-05-01T09:35:23.680Z,435.00
2023-05-01T09:36:23.755Z,436.00
2023-05-01T09:37:23.938Z,435.00
2023-05-01T09:38:23.766Z,434.00
2023-05-01T09:39:23.740Z,433.00
2023-05-01T09:40:23.739Z,433.00
2023-05-01T09:41:23.763Z,434.00
2023-05-01T09:42:23.692Z,435.00
2023-05-01T09:43:23.736Z,436.00
2023-05-01T09:44:23.700Z,436.00
2023-05-01T09:45:23.723Z,435.00
2023-05-01T09:46:24.315Z,436.00
2023-05-01T09:47:23.818Z,435.00
2023-05-01T09:48:24.351Z,433.00
2023-05-01T09:49:23.897Z,433.00
2023-05-01T09:50:23.969Z,433.00
2023-05-01T09:51:24.028Z,437.00
2023-05-01T09:52:24.087Z,439.00
2023-05-01T09:53:24.151Z,438.00
2023-05-01T09:54:24.759Z,439.00
2023-05-01T09:55:25.617Z,439.00
2023-05-01T09:56:24.278Z,439.00
2023-05-01T09:57:27.256Z,438.00
2023-05-01T09:58:24.336Z,440.00
2023-05-01T09:59:24.325Z,438.00
2023-05-01T10:00:24.317Z,439.00
2023-05-01T10:01:24.323Z,437.00
2023-05-01T10:02:24.376Z,437.00
2023-05-01T10:03:24.403Z,436.00
2023-05-01T10:04:24.308Z,436.00
2023-05-01T10:05:24.364Z,437.00
2023-05-01T10:06:24.360Z,436.00
2023-05-01T10:07:24.322Z,436.00
2023-05-01T10:08:24.320Z,436.00
2023-05-01T10:09:24.291Z,435.00
2023-05-01T10:10:24.288Z,436.00
2023-05-01T10:11:24.263Z,436.00
2023-05-01T10:12:24.240Z,433.00
2023-05-01T10:13:24.256Z,434.00
2023-05-01T10:14:24.491Z,436.00
2023-05-01T10:15:26.196Z,436.00
2023-05-01T10:16:24.338Z,437.00
2023-05-01T10:17:24.290Z,437.00
2023-05-01T10:18:24.220Z,434.00
2023-05-01T10:19:24.241Z,432.00
2023-05-01T10:20:24.251Z,430.00
2023-05-01T10:21:24.241Z,429.00
2023-05-01T10:22:24.225Z,429.00
2023-05-01T10:23:24.227Z,430.00
2023-05-01T10:24:24.205Z,430.00
2023-05-01T10:25:24.229Z,431.00
2023-05-01T10:26:24.195Z,432.00
2023-05-01T10:27:24.239Z,432.00
2023-05-01T10:28:24.195Z,432.00
2023-05-01T10:29:24.182Z,434.00
2023-05-01T10:30:24.177Z,433.00
2023-05-01T10:31:24.202Z,435.00
2023-05-01T10:32:24.135Z,433.00
2023-05-01T10:33:24.136Z,436.00
2023-05-01T10:34:26.094Z,436.00
2023-05-01T10:35:24.112Z,439.00
2023-05-01T10:36:24.243Z,438.00
2023-05-01T10:37:24.131Z,437.00
2023-05-01T10:38:24.127Z,436.00
2023-05-01T10:39:24.126Z,437.00
2023-05-01T10:40:24.102Z,435.00
2023-05-01T10:41:24.118Z,435.00
2023-05-01T10:42:24.121Z,436.00
2023-05-01T10:43:24.118Z,433.00
2023-05-01T10:44:24.089Z,435.00
2023-05-01T10:45:24.092Z,437.00
2023-05-01T10:46:24.139Z,437.00
2023-05-01T10:47:24.240Z,439.00
2023-05-01T10:48:24.062Z,441.00
2023-05-01T10:49:24.062Z,439.00
2023-05-01T10:50:24.109Z,440.00
2023-05-01T10:51:27.268Z,439.00
2023-05-01T10:52:24.199Z,439.00
2023-05-01T10:53:24.140Z,439.00
2023-05-01T10:54:24.129Z,441.00
2023-05-01T10:55:24.139Z,439.00
2023-05-01T10:56:24.168Z,439.00
2023-05-01T10:57:24.112Z,440.00
2023-05-01T10:58:24.794Z,442.00
2023-05-01T10:59:24.115Z,441.00
2023-05-01T11:00:24.116Z,439.00
2023-05-01T11:01:24.156Z,438.00
2023-05-01T11:02:24.160Z,437.00
2023-05-01T11:03:24.148Z,437.00
2023-05-01T11:04:24.089Z,437.00
2023-05-01T11:05:32.303Z,438.00
2023-05-01T11:06:25.204Z,435.00
2023-05-01T11:07:24.171Z,432.00
2023-05-01T11:08:24.070Z,430.00
2023-05-01T11:09:24.054Z,430.00
2023-05-01T11:10:24.024Z,429.00
2023-05-01T11:11:24.076Z,431.00
2023-05-01T11:12:24.065Z,431.00
2023-05-01T11:13:24.026Z,431.00
2023-05-01T11:14:24.031Z,431.00
2023-05-01T11:15:23.970Z,431.00
2023-05-01T11:16:24.037Z,431.00
2023-05-01T11:17:24.077Z,431.00
2023-05-01T11:18:24.074Z,430.00
2023-05-01T11:19:24.142Z,427.00
2023-05-01T11:20:24.183Z,428.00
2023-05-01T11:21:24.228Z,428.00
2023-05-01T11:22:24.245Z,427.00
2023-05-01T11:23:24.341Z,429.00
2023-05-01T11:24:24.316Z,430.00
2023-05-01T11:25:24.364Z,431.00
2023-05-01T11:26:24.427Z,430.00
2023-05-01T11:27:24.441Z,431.00
2023-05-01T11:28:24.495Z,431.00
2023-05-01T11:29:24.609Z,434.00
2023-05-01T11:30:24.567Z,434.00
2023-05-01T11:31:24.735Z,435.00
2023-05-01T11:32:24.793Z,436.00
2023-05-01T11:33:24.708Z,433.00
2023-05-01T11:34:24.779Z,431.00
2023-05-01T11:35:24.770Z,429.00
2023-05-01T11:36:24.847Z,430.00
2023-05-01T11:37:24.832Z,429.00
2023-05-01T11:38:24.879Z,430.00
2023-05-01T11:39:24.921Z,433.00
2023-05-01T11:40:25.072Z,433.00
2023-05-01T11:41:24.984Z,431.00
2023-05-01T11:42:25.110Z,432.00
2023-05-01T11:43:25.046Z,433.00
2023-05-01T11:44:25.069Z,431.00
2023-05-01T11:45:25.094Z,432.00
2023-05-01T11:46:25.248Z,431.00
2023-05-01T11:47:25.198Z,435.00
2023-05-01T11:48:25.211Z,436.00
2023-05-01T11:49:25.240Z,435.00
2023-05-01T11:50:25.274Z,433.00
2023-05-01T11:51:25.817Z,435.00
2023-05-01T11:52:25.249Z,433.00
2023-05-01T11:53:25.277Z,433.00
2023-05-01T11:54:25.258Z,430.00
2023-05-01T11:55:25.323Z,429.00
2023-05-01T11:56:27.158Z,429.00
2023-05-01T11:57:25.246Z,429.00
2023-05-01T11:58:25.284Z,429.00
2023-05-01T11:59:25.260Z,430.00
2023-05-01T12:00:25.261Z,429.00
2023-05-01T12:01:25.291Z,431.00
2023-05-01T12:02:25.435Z,434.00
2023-05-01T12:03:25.569Z,434.00
2023-05-01T12:04:25.387Z,437.00
2023-05-01T12:05:25.374Z,436.00
2023-05-01T12:06:25.438Z,436.00
2023-05-01T12:07:25.415Z,437.00
2023-05-01T12:08:25.458Z,436.00
2023-05-01T12:09:25.496Z,437.00
2023-05-01T12:10:25.488Z,436.00
2023-05-01T12:11:25.523Z,438.00
2023-05-01T12:12:25.527Z,436.00
2023-05-01T12:13:25.564Z,436.00
2023-05-01T12:14:25.560Z,436.00
2023-05-01T12:15:25.627Z,436.00
2023-05-01T12:16:25.643Z,437.00
2023-05-01T12:17:25.854Z,436.00
2023-05-01T12:18:25.711Z,437.00
2023-05-01T12:19:25.677Z,436.00
2023-05-01T12:20:25.682Z,437.00
2023-05-01T12:21:25.736Z,437.00
2023-05-01T12:22:25.731Z,436.00
2023-05-01T12:23:25.751Z,434.00
2023-05-01T12:24:25.745Z,435.00
2023-05-01T12:25:25.861Z,437.00
2023-05-01T12:26:25.803Z,436.00
2023-05-01T12:27:25.807Z,436.00
2023-05-01T12:28:25.824Z,438.00
2023-05-01T12:29:25.911Z,440.00